sensor_id;sensor_type;location;lat;lon;timestamp;P1;durP1;ratioP1;P2;durP2;ratioP2
49758;SDS011;35654;46.080;11.118;2022-12-29T00:01:59;27.02;;;12.70;;
49758;SDS011;35654;46.080;11.118;2022-12-29T00:04:26;24.63;;;12.75;;
49758;SDS011;35654;46.080;11.118;2022-12-29T00:06:53;23.58;;;12.15;;
49758;SDS011;35654;46.080;11.118;2022-12-29T00:09:20;23.85;;;12.15;;
49758;SDS011;35654;46.080;11.118;2022-12-29T00:11:47;24.55;;;12.32;;
49758;SDS011;35654;46.080;11.118;2022-12-29T00:14:14;24.20;;;12.02;;
49758;SDS011;35654;46.080;11.118;2022-12-29T00:16:59;25.80;;;12.20;;
49758;SDS011;35654;46.080;11.118;2022-12-29T00:19:26;25.35;;;12.02;;
49758;SDS011;35654;46.080;11.118;2022-12-29T00:22:12;27.85;;;13.38;;
49758;SDS011;35654;46.080;11.118;2022-12-29T00:24:58;25.02;;;12.43;;
49758;SDS011;35654;46.080;11.118;2022-12-29T00:27:30;32.53;;;12.88;;
49758;SDS011;35654;46.080;11.118;2022-12-29T00:30:20;26.00;;;12.60;;
49758;SDS011;35654;46.080;11.118;2022-12-29T00:33:10;27.50;;;12.40;;
49758;SDS011;35654;46.080;11.118;2022-12-29T00:36:00;26.48;;;12.25;;
49758;SDS011;35654;46.080;11.118;2022-12-29T00:38:31;32.35;;;13.23;;
49758;SDS011;35654;46.080;11.118;2022-12-29T00:41:22;32.50;;;13.32;;
49758;SDS011;35654;46.080;11.118;2022-12-29T00:44:07;27.65;;;14.00;;
49758;SDS011;35654;46.080;11.118;2022-12-29T00:46:37;28.02;;;12.93;;
49758;SDS011;35654;46.080;11.118;2022-12-29T00:49:05;31.65;;;13.70;;
49758;SDS011;35654;46.080;11.118;2022-12-29T00:51:52;28.77;;;12.18;;
49758;SDS011;35654;46.080;11.118;2022-12-29T00:54:20;24.77;;;12.65;;
49758;SDS011;35654;46.080;11.118;2022-12-29T00:59:14;24.17;;;12.02;;
49758;SDS011;35654;46.080;11.118;2022-12-29T01:01:41;34.42;;;12.02;;
49758;SDS011;35654;46.080;11.118;2022-12-29T01:06:36;26.92;;;12.07;;
49758;SDS011;35654;46.080;11.118;2022-12-29T01:09:03;26.17;;;12.10;;
49758;SDS011;35654;46.080;11.118;2022-12-29T01:11:49;28.70;;;12.27;;
49758;SDS011;35654;46.080;11.118;2022-12-29T01:14:16;27.13;;;12.63;;
49758;SDS011;35654;46.080;11.118;2022-12-29T01:16:44;23.55;;;12.43;;
49758;SDS011;35654;46.080;11.118;2022-12-29T01:19:12;28.98;;;12.48;;
49758;SDS011;35654;46.080;11.118;2022-12-29T01:21:39;26.70;;;12.10;;
49758;SDS011;35654;46.080;11.118;2022-12-29T01:24:05;31.63;;;12.30;;
49758;SDS011;35654;46.080;11.118;2022-12-29T01:26:32;24.52;;;12.15;;
49758;SDS011;35654;46.080;11.118;2022-12-29T01:28:59;25.00;;;12.05;;
49758;SDS011;35654;46.080;11.118;2022-12-29T01:31:25;27.80;;;12.32;;
49758;SDS011;35654;46.080;11.118;2022-12-29T01:33:52;26.50;;;11.85;;
49758;SDS011;35654;46.080;11.118;2022-12-29T01:36:19;24.52;;;12.43;;
49758;SDS011;35654;46.080;11.118;2022-12-29T01:38:45;27.35;;;12.18;;
49758;SDS011;35654;46.080;11.118;2022-12-29T01:41:13;27.83;;;12.07;;
49758;SDS011;35654;46.080;11.118;2022-12-29T01:43:43;26.05;;;12.07;;
49758;SDS011;35654;46.080;11.118;2022-12-29T01:49:17;27.70;;;12.32;;
49758;SDS011;35654;46.080;11.118;2022-12-29T01:51:48;26.55;;;11.63;;
49758;SDS011;35654;46.080;11.118;2022-12-29T01:54:25;23.67;;;11.60;;
49758;SDS011;35654;46.080;11.118;2022-12-29T01:56:57;25.55;;;11.60;;
49758;SDS011;35654;46.080;11.118;2022-12-29T01:59:28;27.13;;;11.98;;
49758;SDS011;35654;46.080;11.118;2022-12-29T02:01:58;24.67;;;11.02;;
49758;SDS011;35654;46.080;11.118;2022-12-29T02:04:25;26.17;;;11.65;;
49758;SDS011;35654;46.080;11.118;2022-12-29T02:07:03;23.90;;;11.98;;
49758;SDS011;35654;46.080;11.118;2022-12-29T02:09:35;22.95;;;11.77;;
49758;SDS011;35654;46.080;11.118;2022-12-29T02:14:29;28.00;;;12.27;;
49758;SDS011;35654;46.080;11.118;2022-12-29T02:17:03;22.77;;;11.30;;
49758;SDS011;35654;46.080;11.118;2022-12-29T02:26:00;25.77;;;11.52;;
49758;SDS011;35654;46.080;11.118;2022-12-29T02:32:01;27.92;;;12.02;;
49758;SDS011;35654;46.080;11.118;2022-12-29T02:43:59;23.95;;;11.85;;
49758;SDS011;35654;46.080;11.118;2022-12-29T02:49:48;24.08;;;11.48;;
49758;SDS011;35654;46.080;11.118;2022-12-29T02:52:22;23.10;;;11.23;;
49758;SDS011;35654;46.080;11.118;2022-12-29T02:54:54;22.25;;;10.80;;
49758;SDS011;35654;46.080;11.118;2022-12-29T02:59:51;22.50;;;10.88;;
49758;SDS011;35654;46.080;11.118;2022-12-29T03:02:36;23.90;;;10.73;;
49758;SDS011;35654;46.080;11.118;2022-12-29T03:11:27;23.63;;;11.00;;
49758;SDS011;35654;46.080;11.118;2022-12-29T03:14:20;26.05;;;11.48;;
49758;SDS011;35654;46.080;11.118;2022-12-29T03:17:39;23.05;;;11.18;;
49758;SDS011;35654;46.080;11.118;2022-12-29T03:20:08;20.38;;;10.88;;
49758;SDS011;35654;46.080;11.118;2022-12-29T03:22:38;21.88;;;10.85;;
49758;SDS011;35654;46.080;11.118;2022-12-29T03:25:15;24.00;;;11.55;;
49758;SDS011;35654;46.080;11.118;2022-12-29T03:27:51;25.77;;;11.90;;
49758;SDS011;35654;46.080;11.118;2022-12-29T03:30:22;25.42;;;11.48;;
49758;SDS011;35654;46.080;11.118;2022-12-29T03:32:51;25.55;;;12.43;;
49758;SDS011;35654;46.080;11.118;2022-12-29T03:35:21;26.55;;;12.68;;
49758;SDS011;35654;46.080;11.118;2022-12-29T03:37:53;24.77;;;10.65;;
49758;SDS011;35654;46.080;11.118;2022-12-29T03:40:26;22.85;;;11.32;;
49758;SDS011;35654;46.080;11.118;2022-12-29T03:42:54;22.98;;;11.57;;
49758;SDS011;35654;46.080;11.118;2022-12-29T03:45:22;28.30;;;12.30;;
49758;SDS011;35654;46.080;11.118;2022-12-29T03:50:14;22.20;;;11.50;;
49758;SDS011;35654;46.080;11.118;2022-12-29T03:52:41;25.75;;;11.52;;
49758;SDS011;35654;46.080;11.118;2022-12-29T03:55:08;29.75;;;12.02;;
49758;SDS011;35654;46.080;11.118;2022-12-29T03:57:35;23.05;;;11.85;;
49758;SDS011;35654;46.080;11.118;2022-12-29T04:02:30;24.05;;;11.23;;
49758;SDS011;35654;46.080;11.118;2022-12-29T04:07:23;28.95;;;12.63;;
49758;SDS011;35654;46.080;11.118;2022-12-29T04:09:50;23.50;;;12.38;;
49758;SDS011;35654;46.080;11.118;2022-12-29T04:12:17;24.65;;;11.55;;
49758;SDS011;35654;46.080;11.118;2022-12-29T04:14:44;22.45;;;10.98;;
49758;SDS011;35654;46.080;11.118;2022-12-29T04:17:10;20.90;;;11.15;;
49758;SDS011;35654;46.080;11.118;2022-12-29T04:19:37;21.27;;;11.73;;
49758;SDS011;35654;46.080;11.118;2022-12-29T04:22:03;23.35;;;10.68;;
49758;SDS011;35654;46.080;11.118;2022-12-29T04:26:56;21.98;;;9.65;;
49758;SDS011;35654;46.080;11.118;2022-12-29T04:29:23;21.85;;;10.55;;
49758;SDS011;35654;46.080;11.118;2022-12-29T04:34:16;20.80;;;10.60;;
49758;SDS011;35654;46.080;11.118;2022-12-29T04:39:14;20.20;;;9.75;;
49758;SDS011;35654;46.080;11.118;2022-12-29T04:44:07;20.85;;;9.35;;
49758;SDS011;35654;46.080;11.118;2022-12-29T04:46:34;21.25;;;9.73;;
49758;SDS011;35654;46.080;11.118;2022-12-29T04:49:00;23.30;;;10.45;;
49758;SDS011;35654;46.080;11.118;2022-12-29T04:51:30;21.50;;;10.20;;
49758;SDS011;35654;46.080;11.118;2022-12-29T04:53:57;18.85;;;10.18;;
49758;SDS011;35654;46.080;11.118;2022-12-29T04:56:24;21.00;;;10.18;;
49758;SDS011;35654;46.080;11.118;2022-12-29T04:58:50;19.65;;;9.43;;
49758;SDS011;35654;46.080;11.118;2022-12-29T05:01:17;18.55;;;9.90;;
49758;SDS011;35654;46.080;11.118;2022-12-29T05:06:10;22.05;;;9.90;;
49758;SDS011;35654;46.080;11.118;2022-12-29T05:08:36;19.20;;;10.43;;
49758;SDS011;35654;46.080;11.118;2022-12-29T05:11:03;17.08;;;10.10;;
49758;SDS011;35654;46.080;11.118;2022-12-29T05:13:28;22.80;;;11.35;;
49758;SDS011;35654;46.080;11.118;2022-12-29T05:15:56;20.25;;;9.73;;
49758;SDS011;35654;46.080;11.118;2022-12-29T05:20:50;19.83;;;10.38;;
49758;SDS011;35654;46.080;11.118;2022-12-29T05:25:43;23.55;;;9.90;;
49758;SDS011;35654;46.080;11.118;2022-12-29T05:28:11;22.63;;;10.98;;
49758;SDS011;35654;46.080;11.118;2022-12-29T05:30:39;18.88;;;10.48;;
49758;SDS011;35654;46.080;11.118;2022-12-29T05:33:06;21.00;;;10.25;;
49758;SDS011;35654;46.080;11.118;2022-12-29T05:35:32;21.38;;;10.05;;
49758;SDS011;35654;46.080;11.118;2022-12-29T05:40:24;21.95;;;9.88;;
49758;SDS011;35654;46.080;11.118;2022-12-29T05:42:50;19.27;;;10.07;;
49758;SDS011;35654;46.080;11.118;2022-12-29T05:45:15;20.83;;;9.90;;
49758;SDS011;35654;46.080;11.118;2022-12-29T05:47:42;21.23;;;10.13;;
49758;SDS011;35654;46.080;11.118;2022-12-29T05:50:07;20.05;;;9.40;;
49758;SDS011;35654;46.080;11.118;2022-12-29T05:52:36;19.47;;;10.40;;
49758;SDS011;35654;46.080;11.118;2022-12-29T05:55:02;22.85;;;10.60;;
49758;SDS011;35654;46.080;11.118;2022-12-29T05:57:29;22.70;;;10.77;;
49758;SDS011;35654;46.080;11.118;2022-12-29T05:59:56;22.00;;;10.27;;
49758;SDS011;35654;46.080;11.118;2022-12-29T06:04:47;18.50;;;9.57;;
49758;SDS011;35654;46.080;11.118;2022-12-29T06:07:13;18.27;;;9.27;;
49758;SDS011;35654;46.080;11.118;2022-12-29T06:09:39;17.90;;;9.73;;
49758;SDS011;35654;46.080;11.118;2022-12-29T06:12:05;18.73;;;9.83;;
49758;SDS011;35654;46.080;11.118;2022-12-29T06:14:32;23.73;;;10.20;;
49758;SDS011;35654;46.080;11.118;2022-12-29T06:16:59;19.75;;;9.93;;
49758;SDS011;35654;46.080;11.118;2022-12-29T06:19:27;18.23;;;9.27;;
49758;SDS011;35654;46.080;11.118;2022-12-29T06:21:52;19.27;;;10.07;;
49758;SDS011;35654;46.080;11.118;2022-12-29T06:24:19;19.07;;;8.73;;
49758;SDS011;35654;46.080;11.118;2022-12-29T06:26:45;20.27;;;9.48;;
49758;SDS011;35654;46.080;11.118;2022-12-29T06:29:11;22.70;;;10.03;;
49758;SDS011;35654;46.080;11.118;2022-12-29T06:31:39;21.95;;;10.75;;
49758;SDS011;35654;46.080;11.118;2022-12-29T06:34:06;28.98;;;12.07;;
49758;SDS011;35654;46.080;11.118;2022-12-29T06:38:58;20.42;;;10.23;;
49758;SDS011;35654;46.080;11.118;2022-12-29T06:41:25;23.47;;;10.97;;
49758;SDS011;35654;46.080;11.118;2022-12-29T06:46:18;35.20;;;15.13;;
49758;SDS011;35654;46.080;11.118;2022-12-29T06:48:43;45.72;;;18.40;;
49758;SDS011;35654;46.080;11.118;2022-12-29T06:51:10;27.53;;;12.93;;
49758;SDS011;35654;46.080;11.118;2022-12-29T06:53:36;30.13;;;13.15;;
49758;SDS011;35654;46.080;11.118;2022-12-29T06:56:03;25.17;;;13.00;;
49758;SDS011;35654;46.080;11.118;2022-12-29T06:58:30;28.73;;;12.73;;
49758;SDS011;35654;46.080;11.118;2022-12-29T07:00:56;24.48;;;12.63;;
49758;SDS011;35654;46.080;11.118;2022-12-29T07:03:23;28.67;;;13.90;;
49758;SDS011;35654;46.080;11.118;2022-12-29T07:05:48;29.38;;;12.45;;
49758;SDS011;35654;46.080;11.118;2022-12-29T07:08:15;29.77;;;14.43;;
49758;SDS011;35654;46.080;11.118;2022-12-29T07:10:42;21.83;;;10.32;;
49758;SDS011;35654;46.080;11.118;2022-12-29T07:13:07;21.67;;;10.82;;
49758;SDS011;35654;46.080;11.118;2022-12-29T07:15:34;19.83;;;10.17;;
49758;SDS011;35654;46.080;11.118;2022-12-29T07:18:02;22.60;;;10.13;;
49758;SDS011;35654;46.080;11.118;2022-12-29T07:20:30;23.92;;;11.73;;
49758;SDS011;35654;46.080;11.118;2022-12-29T07:22:57;23.02;;;10.98;;
49758;SDS011;35654;46.080;11.118;2022-12-29T07:25:23;23.25;;;11.55;;
49758;SDS011;35654;46.080;11.118;2022-12-29T07:27:50;24.67;;;11.73;;
49758;SDS011;35654;46.080;11.118;2022-12-29T07:30:17;24.65;;;11.00;;
49758;SDS011;35654;46.080;11.118;2022-12-29T07:32:43;21.63;;;11.52;;
49758;SDS011;35654;46.080;11.118;2022-12-29T07:35:10;28.25;;;12.30;;
49758;SDS011;35654;46.080;11.118;2022-12-29T07:37:37;30.05;;;12.02;;
49758;SDS011;35654;46.080;11.118;2022-12-29T07:40:04;22.48;;;11.23;;
49758;SDS011;35654;46.080;11.118;2022-12-29T07:42:31;25.30;;;11.55;;
49758;SDS011;35654;46.080;11.118;2022-12-29T07:44:58;26.23;;;12.48;;
49758;SDS011;35654;46.080;11.118;2022-12-29T07:47:25;26.02;;;12.20;;
49758;SDS011;35654;46.080;11.118;2022-12-29T07:49:52;25.67;;;12.95;;
49758;SDS011;35654;46.080;11.118;2022-12-29T07:52:18;23.98;;;11.38;;
49758;SDS011;35654;46.080;11.118;2022-12-29T07:54:45;23.90;;;11.23;;
49758;SDS011;35654;46.080;11.118;2022-12-29T07:57:11;22.50;;;11.23;;
49758;SDS011;35654;46.080;11.118;2022-12-29T07:59:38;26.45;;;11.65;;
49758;SDS011;35654;46.080;11.118;2022-12-29T08:02:05;27.27;;;12.70;;
49758;SDS011;35654;46.080;11.118;2022-12-29T08:04:32;27.67;;;13.13;;
49758;SDS011;35654;46.080;11.118;2022-12-29T08:06:58;21.63;;;10.75;;
49758;SDS011;35654;46.080;11.118;2022-12-29T08:09:24;30.57;;;12.43;;
49758;SDS011;35654;46.080;11.118;2022-12-29T08:14:19;34.25;;;12.70;;
49758;SDS011;35654;46.080;11.118;2022-12-29T08:16:46;22.15;;;11.30;;
49758;SDS011;35654;46.080;11.118;2022-12-29T08:19:13;26.63;;;11.48;;
49758;SDS011;35654;46.080;11.118;2022-12-29T08:21:40;24.70;;;10.60;;
49758;SDS011;35654;46.080;11.118;2022-12-29T08:24:08;20.63;;;11.05;;
49758;SDS011;35654;46.080;11.118;2022-12-29T08:26:35;22.00;;;9.85;;
49758;SDS011;35654;46.080;11.118;2022-12-29T08:29:01;23.30;;;11.38;;
49758;SDS011;35654;46.080;11.118;2022-12-29T08:31:28;23.80;;;11.85;;
49758;SDS011;35654;46.080;11.118;2022-12-29T08:36:21;31.05;;;15.35;;
49758;SDS011;35654;46.080;11.118;2022-12-29T08:38:49;27.65;;;12.82;;
49758;SDS011;35654;46.080;11.118;2022-12-29T08:41:15;30.15;;;13.50;;
49758;SDS011;35654;46.080;11.118;2022-12-29T08:43:45;25.85;;;12.20;;
49758;SDS011;35654;46.080;11.118;2022-12-29T08:46:13;24.77;;;12.85;;
49758;SDS011;35654;46.080;11.118;2022-12-29T08:48:40;26.90;;;13.02;;
49758;SDS011;35654;46.080;11.118;2022-12-29T08:51:07;31.55;;;11.80;;
49758;SDS011;35654;46.080;11.118;2022-12-29T08:53:34;20.10;;;10.40;;
49758;SDS011;35654;46.080;11.118;2022-12-29T08:58:27;21.75;;;10.05;;
49758;SDS011;35654;46.080;11.118;2022-12-29T09:03:22;23.42;;;10.55;;
49758;SDS011;35654;46.080;11.118;2022-12-29T09:05:50;18.77;;;9.93;;
49758;SDS011;35654;46.080;11.118;2022-12-29T09:08:18;20.90;;;10.25;;
49758;SDS011;35654;46.080;11.118;2022-12-29T09:10:46;20.10;;;10.10;;
49758;SDS011;35654;46.080;11.118;2022-12-29T09:13:14;26.60;;;12.07;;
49758;SDS011;35654;46.080;11.118;2022-12-29T09:15:41;26.13;;;12.10;;
49758;SDS011;35654;46.080;11.118;2022-12-29T09:18:09;23.65;;;11.88;;
49758;SDS011;35654;46.080;11.118;2022-12-29T09:20:37;18.50;;;10.43;;
49758;SDS011;35654;46.080;11.118;2022-12-29T09:23:04;24.88;;;12.23;;
49758;SDS011;35654;46.080;11.118;2022-12-29T09:25:32;23.08;;;10.88;;
49758;SDS011;35654;46.080;11.118;2022-12-29T09:28:00;23.08;;;10.35;;
49758;SDS011;35654;46.080;11.118;2022-12-29T09:30:30;25.17;;;10.68;;
49758;SDS011;35654;46.080;11.118;2022-12-29T09:32:56;21.10;;;9.73;;
49758;SDS011;35654;46.080;11.118;2022-12-29T09:35:23;23.35;;;10.13;;
49758;SDS011;35654;46.080;11.118;2022-12-29T09:37:49;23.75;;;12.00;;
49758;SDS011;35654;46.080;11.118;2022-12-29T09:40:50;20.80;;;10.10;;
49758;SDS011;35654;46.080;11.118;2022-12-29T09:51:50;19.27;;;8.88;;
49758;SDS011;35654;46.080;11.118;2022-12-29T09:54:39;19.52;;;8.18;;
49758;SDS011;35654;46.080;11.118;2022-12-29T10:00:26;52.25;;;10.02;;
49758;SDS011;35654;46.080;11.118;2022-12-29T10:03:19;29.60;;;8.90;;
49758;SDS011;35654;46.080;11.118;2022-12-29T10:08:42;23.73;;;8.70;;
49758;SDS011;35654;46.080;11.118;2022-12-29T10:17:37;18.67;;;8.23;;
49758;SDS011;35654;46.080;11.118;2022-12-29T10:25:57;20.13;;;8.50;;
49758;SDS011;35654;46.080;11.118;2022-12-29T10:28:43;18.40;;;8.18;;
49758;SDS011;35654;46.080;11.118;2022-12-29T10:31:19;34.20;;;8.35;;
49758;SDS011;35654;46.080;11.118;2022-12-29T10:33:57;20.45;;;7.93;;
49758;SDS011;35654;46.080;11.118;2022-12-29T10:36:33;21.58;;;7.63;;
49758;SDS011;35654;46.080;11.118;2022-12-29T10:41:40;32.97;;;8.73;;
49758;SDS011;35654;46.080;11.118;2022-12-29T10:44:14;44.08;;;10.00;;
49758;SDS011;35654;46.080;11.118;2022-12-29T10:46:45;26.42;;;8.13;;
49758;SDS011;35654;46.080;11.118;2022-12-29T10:49:22;42.15;;;8.57;;
49758;SDS011;35654;46.080;11.118;2022-12-29T10:51:53;20.52;;;7.70;;
49758;SDS011;35654;46.080;11.118;2022-12-29T10:54:26;27.88;;;8.93;;
49758;SDS011;35654;46.080;11.118;2022-12-29T10:57:05;25.05;;;7.70;;
49758;SDS011;35654;46.080;11.118;2022-12-29T10:59:37;10.55;;;6.45;;
49758;SDS011;35654;46.080;11.118;2022-12-29T11:02:17;54.55;;;8.90;;
49758;SDS011;35654;46.080;11.118;2022-12-29T11:05:15;19.83;;;6.57;;
49758;SDS011;35654;46.080;11.118;2022-12-29T11:07:52;17.40;;;6.63;;
49758;SDS011;35654;46.080;11.118;2022-12-29T11:13:04;38.50;;;8.98;;
49758;SDS011;35654;46.080;11.118;2022-12-29T11:15:47;21.50;;;8.02;;
49758;SDS011;35654;46.080;11.118;2022-12-29T11:18:20;27.70;;;7.32;;
49758;SDS011;35654;46.080;11.118;2022-12-29T11:20:59;14.32;;;6.75;;
49758;SDS011;35654;46.080;11.118;2022-12-29T11:34:32;29.35;;;8.32;;
49758;SDS011;35654;46.080;11.118;2022-12-29T11:37:46;18.30;;;7.53;;
49758;SDS011;35654;46.080;11.118;2022-12-29T11:40:18;15.77;;;7.47;;
49758;SDS011;35654;46.080;11.118;2022-12-29T11:43:00;16.05;;;7.43;;
49758;SDS011;35654;46.080;11.118;2022-12-29T11:45:33;17.92;;;7.05;;
49758;SDS011;35654;46.080;11.118;2022-12-29T11:48:12;23.20;;;6.70;;
49758;SDS011;35654;46.080;11.118;2022-12-29T11:50:48;14.23;;;6.88;;
49758;SDS011;35654;46.080;11.118;2022-12-29T11:53:50;12.30;;;6.57;;
49758;SDS011;35654;46.080;11.118;2022-12-29T11:56:16;15.32;;;7.63;;
49758;SDS011;35654;46.080;11.118;2022-12-29T11:58:46;19.40;;;6.75;;
49758;SDS011;35654;46.080;11.118;2022-12-29T12:01:23;17.50;;;7.00;;
49758;SDS011;35654;46.080;11.118;2022-12-29T12:04:12;12.60;;;6.60;;
49758;SDS011;35654;46.080;11.118;2022-12-29T12:06:44;18.85;;;7.13;;
49758;SDS011;35654;46.080;11.118;2022-12-29T12:09:36;35.60;;;7.78;;
49758;SDS011;35654;46.080;11.118;2022-12-29T12:12:15;15.55;;;7.07;;
49758;SDS011;35654;46.080;11.118;2022-12-29T12:14:58;20.42;;;6.97;;
49758;SDS011;35654;46.080;11.118;2022-12-29T12:17:31;12.88;;;6.40;;
49758;SDS011;35654;46.080;11.118;2022-12-29T12:23:17;19.38;;;7.05;;
49758;SDS011;35654;46.080;11.118;2022-12-29T12:28:45;14.90;;;6.90;;
49758;SDS011;35654;46.080;11.118;2022-12-29T12:34:13;15.05;;;5.88;;
49758;SDS011;35654;46.080;11.118;2022-12-29T12:37:03;13.93;;;6.20;;
49758;SDS011;35654;46.080;11.118;2022-12-29T12:39:41;14.00;;;6.50;;
49758;SDS011;35654;46.080;11.118;2022-12-29T13:00:15;13.18;;;6.40;;
49758;SDS011;35654;46.080;11.118;2022-12-29T13:16:27;12.88;;;7.28;;
49758;SDS011;35654;46.080;11.118;2022-12-29T13:19:10;18.73;;;8.35;;
49758;SDS011;35654;46.080;11.118;2022-12-29T13:27:41;18.80;;;7.45;;
49758;SDS011;35654;46.080;11.118;2022-12-29T13:30:23;44.92;;;15.20;;
49758;SDS011;35654;46.080;11.118;2022-12-29T13:33:07;13.95;;;7.20;;
49758;SDS011;35654;46.080;11.118;2022-12-29T13:39:05;16.88;;;7.40;;
49758;SDS011;35654;46.080;11.118;2022-12-29T13:41:31;33.05;;;8.55;;
49758;SDS011;35654;46.080;11.118;2022-12-29T13:44:03;16.45;;;7.70;;
49758;SDS011;35654;46.080;11.118;2022-12-29T13:46:33;12.95;;;7.18;;
49758;SDS011;35654;46.080;11.118;2022-12-29T13:49:11;21.20;;;7.88;;
49758;SDS011;35654;46.080;11.118;2022-12-29T13:51:42;37.00;;;8.45;;
49758;SDS011;35654;46.080;11.118;2022-12-29T13:54:58;27.90;;;8.23;;
49758;SDS011;35654;46.080;11.118;2022-12-29T14:00:20;20.73;;;7.80;;
49758;SDS011;35654;46.080;11.118;2022-12-29T14:05:42;17.55;;;7.55;;
49758;SDS011;35654;46.080;11.118;2022-12-29T14:08:16;17.30;;;8.20;;
49758;SDS011;35654;46.080;11.118;2022-12-29T14:10:48;21.45;;;8.70;;
49758;SDS011;35654;46.080;11.118;2022-12-29T14:13:18;18.67;;;7.80;;
49758;SDS011;35654;46.080;11.118;2022-12-29T14:15:51;17.58;;;8.98;;
49758;SDS011;35654;46.080;11.118;2022-12-29T14:18:29;17.77;;;8.48;;
49758;SDS011;35654;46.080;11.118;2022-12-29T14:23:46;20.83;;;8.95;;
49758;SDS011;35654;46.080;11.118;2022-12-29T14:28:48;26.50;;;8.85;;
49758;SDS011;35654;46.080;11.118;2022-12-29T14:34:27;35.55;;;10.60;;
49758;SDS011;35654;46.080;11.118;2022-12-29T14:42:12;20.60;;;7.68;;
49758;SDS011;35654;46.080;11.118;2022-12-29T14:44:45;14.90;;;7.32;;
49758;SDS011;35654;46.080;11.118;2022-12-29T14:50:03;16.13;;;7.57;;
49758;SDS011;35654;46.080;11.118;2022-12-29T14:52:32;12.82;;;7.07;;
49758;SDS011;35654;46.080;11.118;2022-12-29T14:58:32;30.65;;;8.85;;
49758;SDS011;35654;46.080;11.118;2022-12-29T15:01:20;17.50;;;7.97;;
49758;SDS011;35654;46.080;11.118;2022-12-29T15:04:06;14.07;;;7.20;;
49758;SDS011;35654;46.080;11.118;2022-12-29T15:06:42;20.02;;;8.07;;
49758;SDS011;35654;46.080;11.118;2022-12-29T15:12:29;21.60;;;8.30;;
49758;SDS011;35654;46.080;11.118;2022-12-29T15:15:25;21.67;;;8.32;;
49758;SDS011;35654;46.080;11.118;2022-12-29T15:17:54;19.80;;;8.57;;
49758;SDS011;35654;46.080;11.118;2022-12-29T15:20:26;16.77;;;8.35;;
49758;SDS011;35654;46.080;11.118;2022-12-29T15:22:56;21.67;;;9.30;;
49758;SDS011;35654;46.080;11.118;2022-12-29T15:25:27;34.00;;;9.40;;
49758;SDS011;35654;46.080;11.118;2022-12-29T15:27:54;20.67;;;9.30;;
49758;SDS011;35654;46.080;11.118;2022-12-29T15:30:25;25.52;;;9.77;;
49758;SDS011;35654;46.080;11.118;2022-12-29T15:35:34;20.55;;;9.38;;
49758;SDS011;35654;46.080;11.118;2022-12-29T15:38:23;19.88;;;9.10;;
49758;SDS011;35654;46.080;11.118;2022-12-29T15:41:14;21.17;;;9.00;;
49758;SDS011;35654;46.080;11.118;2022-12-29T15:44:16;20.35;;;8.43;;
49758;SDS011;35654;46.080;11.118;2022-12-29T15:46:35;19.73;;;8.10;;
49758;SDS011;35654;46.080;11.118;2022-12-29T15:49:06;19.45;;;8.88;;
49758;SDS011;35654;46.080;11.118;2022-12-29T15:51:35;17.88;;;8.75;;
49758;SDS011;35654;46.080;11.118;2022-12-29T15:54:03;20.70;;;8.48;;
49758;SDS011;35654;46.080;11.118;2022-12-29T15:56:31;18.63;;;8.73;;
49758;SDS011;35654;46.080;11.118;2022-12-29T15:58:59;20.02;;;8.07;;
49758;SDS011;35654;46.080;11.118;2022-12-29T16:01:34;17.00;;;8.55;;
49758;SDS011;35654;46.080;11.118;2022-12-29T16:04:08;26.88;;;9.07;;
49758;SDS011;35654;46.080;11.118;2022-12-29T16:06:39;23.38;;;9.82;;
49758;SDS011;35654;46.080;11.118;2022-12-29T16:09:28;21.15;;;8.60;;
49758;SDS011;35654;46.080;11.118;2022-12-29T16:11:57;20.77;;;8.85;;
49758;SDS011;35654;46.080;11.118;2022-12-29T16:14:33;19.10;;;8.38;;
49758;SDS011;35654;46.080;11.118;2022-12-29T16:17:09;24.77;;;8.82;;
49758;SDS011;35654;46.080;11.118;2022-12-29T16:19:39;18.95;;;8.48;;
49758;SDS011;35654;46.080;11.118;2022-12-29T16:22:14;25.20;;;9.43;;
49758;SDS011;35654;46.080;11.118;2022-12-29T16:25:25;31.33;;;10.23;;
49758;SDS011;35654;46.080;11.118;2022-12-29T16:27:58;28.83;;;11.02;;
49758;SDS011;35654;46.080;11.118;2022-12-29T16:30:27;25.92;;;11.18;;
49758;SDS011;35654;46.080;11.118;2022-12-29T16:32:59;19.92;;;9.63;;
49758;SDS011;35654;46.080;11.118;2022-12-29T16:38:31;22.50;;;10.00;;
49758;SDS011;35654;46.080;11.118;2022-12-29T16:41:00;24.20;;;10.27;;
49758;SDS011;35654;46.080;11.118;2022-12-29T16:43:31;28.13;;;11.10;;
49758;SDS011;35654;46.080;11.118;2022-12-29T16:46:19;40.75;;;12.50;;
49758;SDS011;35654;46.080;11.118;2022-12-29T16:48:56;27.73;;;11.93;;
49758;SDS011;35654;46.080;11.118;2022-12-29T16:51:44;27.95;;;11.40;;
49758;SDS011;35654;46.080;11.118;2022-12-29T16:54:20;22.38;;;11.50;;
49758;SDS011;35654;46.080;11.118;2022-12-29T16:56:56;34.33;;;11.63;;
49758;SDS011;35654;46.080;11.118;2022-12-29T16:59:40;28.15;;;11.57;;
49758;SDS011;35654;46.080;11.118;2022-12-29T17:02:15;34.85;;;14.10;;
49758;SDS011;35654;46.080;11.118;2022-12-29T17:04:45;37.15;;;16.55;;
49758;SDS011;35654;46.080;11.118;2022-12-29T17:07:21;46.13;;;19.35;;
49758;SDS011;35654;46.080;11.118;2022-12-29T17:09:49;34.15;;;12.48;;
49758;SDS011;35654;46.080;11.118;2022-12-29T17:12:20;29.10;;;12.23;;
49758;SDS011;35654;46.080;11.118;2022-12-29T17:15:03;47.50;;;20.63;;
49758;SDS011;35654;46.080;11.118;2022-12-29T17:17:40;38.53;;;16.77;;
49758;SDS011;35654;46.080;11.118;2022-12-29T17:20:22;37.55;;;16.88;;
49758;SDS011;35654;46.080;11.118;2022-12-29T17:22:54;35.55;;;15.73;;
49758;SDS011;35654;46.080;11.118;2022-12-29T17:25:32;36.83;;;14.23;;
49758;SDS011;35654;46.080;11.118;2022-12-29T17:28:02;34.22;;;14.23;;
49758;SDS011;35654;46.080;11.118;2022-12-29T17:30:32;26.60;;;12.57;;
49758;SDS011;35654;46.080;11.118;2022-12-29T17:33:06;30.77;;;13.68;;
49758;SDS011;35654;46.080;11.118;2022-12-29T17:35:39;39.38;;;15.15;;
49758;SDS011;35654;46.080;11.118;2022-12-29T17:38:18;44.83;;;14.75;;
49758;SDS011;35654;46.080;11.118;2022-12-29T17:40:44;46.63;;;19.02;;
49758;SDS011;35654;46.080;11.118;2022-12-29T17:43:10;42.50;;;16.33;;
49758;SDS011;35654;46.080;11.118;2022-12-29T17:45:38;35.65;;;15.50;;
49758;SDS011;35654;46.080;11.118;2022-12-29T17:48:14;28.70;;;15.65;;
49758;SDS011;35654;46.080;11.118;2022-12-29T17:50:41;34.53;;;14.93;;
49758;SDS011;35654;46.080;11.118;2022-12-29T17:53:11;35.65;;;14.55;;
49758;SDS011;35654;46.080;11.118;2022-12-29T17:55:39;35.42;;;14.57;;
49758;SDS011;35654;46.080;11.118;2022-12-29T18:00:43;30.65;;;13.65;;
49758;SDS011;35654;46.080;11.118;2022-12-29T18:03:16;30.23;;;14.48;;
49758;SDS011;35654;46.080;11.118;2022-12-29T18:05:44;34.67;;;14.15;;
49758;SDS011;35654;46.080;11.118;2022-12-29T18:08:10;35.80;;;15.38;;
49758;SDS011;35654;46.080;11.118;2022-12-29T18:13:02;29.52;;;14.77;;
49758;SDS011;35654;46.080;11.118;2022-12-29T18:15:29;33.45;;;14.90;;
49758;SDS011;35654;46.080;11.118;2022-12-29T18:18:10;31.52;;;15.27;;
49758;SDS011;35654;46.080;11.118;2022-12-29T18:20:39;33.97;;;14.48;;